Bastrop, LA

2:19 PM CST on January 24, 2017 (GMT -0600)
Bastrop

Weather History for KBQP - March, 2013

Change the Weather History Date:

Wednesday, March 13, 2013

  Actual Average (KMLU) Record (KMLU)
Temperature  
Mean Temperature 52 °F -  
Max Temperature 66 °F 68 °F 89 °F (1963)
Min Temperature 39 °F 47 °F 24 °F (1948)
Degree Days  
Heating Degree Days 12    
Growing Degree Days 2 (Base 50)    
Moisture  
Dew Point 25 °F    
Average Humidity 42    
Maximum Humidity 81    
Minimum Humidity 10    
Precipitation  
Precipitation 0.00 in - - ()
Sea Level Pressure  
Sea Level Pressure 30.39 in    
Wind  
Wind Speed 2 mph (NNW)    
Max Wind Speed 13 mph    
Max Gust Speed 21 mph    
Visibility 10 miles    
Events      
Averages and records for this station are not official NWS values.
T = Trace of Precipitation, MM = Missing Value Source: NWS Daily Summary

Daily Weather History Graph

Daily Weather History Graph

Search for Another Location

Airport or City:

Trip Planner

Search our weather history database for the weather conditions in past years. The results will help you decide how hot, cold, wet, or windy it might be!

Date:

Astronomy

Mar. 13, 2013 Rise Set
Actual Time 7:20 AM CDT 7:14 PM CDT
Civil Twilight 6:55 AM CDT 7:38 PM CDT
Nautical Twilight 6:26 AM CDT 8:07 PM CDT
Astronomical Twilight 5:58 AM CDT 8:36 PM CDT
Moon 8:08 AM CDT (3/13) 9:20 PM CDT (3/13)
Length of Visible Light 12h 43m
Length of Day
11h 54m
Waxing Crescent, 4% of the Moon is Illuminated
Mar 13
Waxing Crescent
Mar 19
First Quarter
Mar 27
Full
Apr 2
Last Quarter
Apr 10
New

Hourly Weather History & Observations

Time (CDT) Temp. Windchill Dew Point Humidity Pressure Visibility Wind Dir Wind Speed Gust Speed Precip Events Conditions
12:15 AM 48.4 °F - 33.4 °F 56% 30.26 in 10.0 mi Calm Calm - N/A   Clear
12:55 AM 46.4 °F 41.9 °F 34.2 °F 62% 30.28 in 10.0 mi NW 9.2 mph - N/A   Clear
1:15 AM 46.6 °F - 34.0 °F 62% 30.28 in 10.0 mi Calm Calm - N/A   Clear
1:35 AM 45.7 °F - 34.2 °F 64% 30.28 in 10.0 mi Calm Calm - N/A   Clear
2:15 AM 46.9 °F - 34.7 °F 62% 30.29 in 10.0 mi Calm Calm - N/A   Clear
2:35 AM 48.4 °F - 35.6 °F 61% 30.29 in 10.0 mi Calm Calm - N/A   Clear
2:55 AM 49.5 °F - 35.4 °F 58% 30.29 in 10.0 mi Calm Calm - N/A   Clear
3:15 AM 50.0 °F - 34.7 °F 56% 30.30 in 10.0 mi Calm Calm - N/A   Clear
3:55 AM 50.0 °F - 34.0 °F 54% 30.31 in 10.0 mi Calm Calm - N/A   Clear
4:15 AM 48.9 °F - 34.0 °F 56% 30.32 in 10.0 mi Calm Calm - N/A   Clear
4:35 AM 48.4 °F - 34.0 °F 58% 30.32 in 10.0 mi Calm Calm - N/A   Clear
4:55 AM 47.1 °F - 33.8 °F 60% 30.33 in 10.0 mi Calm Calm - N/A   Clear
5:15 AM 46.0 °F - 34.0 °F 63% 30.34 in 10.0 mi Calm Calm - N/A   Clear
5:35 AM 43.0 °F - 35.1 °F 74% 30.34 in 10.0 mi Calm Calm - N/A   Clear
5:55 AM 40.1 °F - 33.8 °F 78% 30.35 in 10.0 mi Calm Calm - N/A   Clear
6:15 AM 39.4 °F - 33.6 °F 80% 30.36 in 10.0 mi Calm Calm - N/A   Clear
6:35 AM 39.2 °F - 33.8 °F 81% 30.37 in 10.0 mi Calm Calm - N/A   Clear
6:55 AM 40.6 °F - 34.2 °F 78% 30.38 in 10.0 mi Calm Calm - N/A   Clear
7:15 AM 43.2 °F - 32.5 °F 66% 30.38 in 10.0 mi Calm Calm - N/A   Clear
7:35 AM 43.0 °F - 32.0 °F 65% 30.39 in 10.0 mi Calm Calm - N/A   Clear
7:55 AM 43.3 °F - 32.0 °F 64% 30.40 in 10.0 mi Calm Calm - N/A   Clear
8:15 AM 44.6 °F - 32.0 °F 61% 30.41 in 10.0 mi Calm Calm - N/A   Clear
8:35 AM 46.4 °F - 31.5 °F 56% 30.42 in 10.0 mi Calm Calm - N/A   Clear
8:55 AM 48.4 °F - 31.1 °F 51% 30.43 in 10.0 mi Calm Calm - N/A   Clear
9:15 AM 50.0 °F - 28.0 °F 43% 30.43 in 10.0 mi Calm Calm - N/A   Clear
9:35 AM 51.4 °F - 25.2 °F 36% 30.44 in 10.0 mi Calm Calm - N/A   Clear
9:55 AM 52.3 °F - 21.0 °F 29% 30.44 in 10.0 mi NE 3.5 mph - N/A   Clear
10:15 AM 53.6 °F - 22.5 °F 30% 30.44 in 10.0 mi NNE 4.6 mph - N/A   Clear
10:35 AM 54.9 °F - 19.2 °F 25% 30.45 in 10.0 mi North 3.5 mph - N/A   Clear
10:55 AM 54.9 °F - 19.6 °F 25% 30.46 in 10.0 mi Calm Calm - N/A   Clear
11:15 AM 56.7 °F - 19.8 °F 24% 30.46 in 10.0 mi NNW 8.1 mph - N/A   Clear
11:35 AM 56.8 °F - 18.0 °F 22% 30.46 in 10.0 mi NNW 4.6 mph - N/A   Clear
11:55 AM 58.3 °F - 19.4 °F 22% 30.46 in 10.0 mi NNW 9.2 mph - N/A   Clear
12:15 PM 59.5 °F - 20.5 °F 22% 30.45 in 10.0 mi North 6.9 mph - N/A   Clear
12:35 PM 59.5 °F - 18.5 °F 20% 30.45 in 10.0 mi NNW 5.8 mph - N/A   Clear
12:55 PM 60.6 °F - 17.6 °F 19% 30.44 in 10.0 mi North 4.6 mph - N/A   Clear
1:15 PM 61.5 °F - 18.3 °F 19% 30.44 in 10.0 mi Calm Calm - N/A   Clear
1:35 PM 62.2 °F - 14.0 °F 15% 30.43 in 10.0 mi NW 9.2 mph 19.6 mph N/A   Clear
1:55 PM 62.4 °F - 11.3 °F 14% 30.42 in 10.0 mi NW 9.2 mph 19.6 mph N/A   Clear
2:15 PM 63.3 °F - 10.2 °F 12% 30.41 in 10.0 mi North 5.8 mph 17.3 mph N/A   Clear
2:35 PM 63.5 °F - 11.7 °F 13% 30.41 in 10.0 mi NW 9.2 mph 20.7 mph N/A   Clear
2:55 PM 64.0 °F - 10.8 °F 12% 30.41 in 10.0 mi NNW 6.9 mph - N/A   Clear
3:15 PM 64.8 °F - 11.1 °F 12% 30.40 in 10.0 mi WNW 12.7 mph 17.3 mph N/A   Clear
3:35 PM 65.1 °F - 10.9 °F 12% 30.39 in 10.0 mi North 5.8 mph - N/A   Clear
3:55 PM 65.5 °F - 8.1 °F 11% 30.38 in 10.0 mi NNW 6.9 mph - N/A   Clear
4:15 PM 66.2 °F - 10.6 °F 11% 30.38 in 10.0 mi NNW 6.9 mph - N/A   Clear
4:35 PM 66.2 °F - 9.3 °F 11% 30.37 in 10.0 mi North 6.9 mph - N/A   Clear
4:55 PM 65.7 °F - 6.3 °F 10% 30.37 in 10.0 mi North 6.9 mph - N/A   Clear
5:15 PM 65.3 °F - 8.8 °F 11% 30.37 in 10.0 mi Calm Calm - N/A   Clear
5:35 PM 64.8 °F - 7.7 °F 11% 30.37 in 10.0 mi Calm Calm - N/A   Clear
5:55 PM 64.2 °F - 7.5 °F 11% 30.37 in 10.0 mi Calm Calm - N/A   Clear
6:15 PM 63.5 °F - 9.0 °F 12% 30.37 in 10.0 mi Calm Calm - N/A   Clear
6:35 PM 61.2 °F - 20.5 °F 21% 30.38 in 10.0 mi ENE 4.6 mph - N/A   Clear
6:55 PM 59.0 °F - 23.2 °F 25% 30.38 in 10.0 mi Calm Calm - N/A   Clear
7:15 PM 56.8 °F - 24.1 °F 28% 30.38 in 10.0 mi Calm Calm - N/A   Clear
7:35 PM 53.6 °F - 27.5 °F 37% 30.38 in 10.0 mi Calm Calm - N/A   Clear
7:55 PM 50.0 °F - 30.4 °F 47% 30.39 in 10.0 mi Calm Calm - N/A   Clear
8:15 PM 48.6 °F - 30.6 °F 50% 30.39 in 10.0 mi Calm Calm - N/A   Clear
8:35 PM 48.4 °F - 30.0 °F 49% 30.39 in 10.0 mi Calm Calm - N/A   Clear
8:55 PM 47.7 °F - 30.2 °F 51% 30.39 in 10.0 mi Calm Calm - N/A   Clear
9:15 PM 48.6 °F - 28.9 °F 47% 30.40 in 10.0 mi Calm Calm - N/A   Clear
9:35 PM 45.3 °F - 30.9 °F 57% 30.40 in 10.0 mi Calm Calm - N/A   Clear
9:55 PM 43.9 °F - 31.5 °F 62% 30.41 in 10.0 mi Calm Calm - N/A   Clear
10:15 PM 43.3 °F - 29.1 °F 57% 30.42 in 10.0 mi Calm Calm - N/A   Clear
10:35 PM 43.0 °F - 30.0 °F 60% 30.42 in 10.0 mi Calm Calm - N/A   Clear
10:55 PM 41.9 °F - 30.2 °F 63% 30.43 in 10.0 mi Calm Calm - N/A   Clear
11:15 PM 41.9 °F - 30.7 °F 65% 30.43 in 10.0 mi Calm Calm - N/A   Clear
11:35 PM 41.5 °F - 30.7 °F 65% 30.43 in 10.0 mi Calm Calm - N/A   Clear
11:55 PM 40.3 °F - 31.3 °F 70% 30.43 in 10.0 mi Calm Calm - N/A   Clear